sensor_id;sensor_type;location;lat;lon;timestamp;P1;durP1;ratioP1;P2;durP2;ratioP2
30080;SDS011;16902;50.816;12.828;2022-08-21T00:01:18;39.60;;;30.92;;
30080;SDS011;16902;50.816;12.828;2022-08-21T00:06:22;40.63;;;30.45;;
30080;SDS011;16902;50.816;12.828;2022-08-21T00:11:25;37.65;;;30.33;;
30080;SDS011;16902;50.816;12.828;2022-08-21T00:16:28;33.92;;;27.50;;
30080;SDS011;16902;50.816;12.828;2022-08-21T00:21:29;35.80;;;28.55;;
30080;SDS011;16902;50.816;12.828;2022-08-21T00:26:31;34.75;;;27.08;;
30080;SDS011;16902;50.816;12.828;2022-08-21T00:31:33;34.38;;;26.63;;
30080;SDS011;16902;50.816;12.828;2022-08-21T00:36:35;33.88;;;26.75;;
30080;SDS011;16902;50.816;12.828;2022-08-21T00:41:37;28.40;;;23.80;;
30080;SDS011;16902;50.816;12.828;2022-08-21T00:46:40;35.10;;;28.02;;
30080;SDS011;16902;50.816;12.828;2022-08-21T00:51:47;32.25;;;26.42;;
30080;SDS011;16902;50.816;12.828;2022-08-21T00:56:53;28.83;;;22.92;;
30080;SDS011;16902;50.816;12.828;2022-08-21T01:02:00;26.05;;;22.38;;
30080;SDS011;16902;50.816;12.828;2022-08-21T01:07:02;37.53;;;28.83;;
30080;SDS011;16902;50.816;12.828;2022-08-21T01:12:04;34.47;;;25.38;;
30080;SDS011;16902;50.816;12.828;2022-08-21T01:17:06;27.35;;;22.40;;
30080;SDS011;16902;50.816;12.828;2022-08-21T01:22:09;30.58;;;23.52;;
30080;SDS011;16902;50.816;12.828;2022-08-21T01:27:11;39.13;;;29.33;;
30080;SDS011;16902;50.816;12.828;2022-08-21T01:32:14;31.98;;;24.25;;
30080;SDS011;16902;50.816;12.828;2022-08-21T01:37:19;36.03;;;27.40;;
30080;SDS011;16902;50.816;12.828;2022-08-21T01:42:22;34.17;;;26.15;;
30080;SDS011;16902;50.816;12.828;2022-08-21T01:47:24;34.97;;;27.63;;
30080;SDS011;16902;50.816;12.828;2022-08-21T01:52:26;39.03;;;27.58;;
30080;SDS011;16902;50.816;12.828;2022-08-21T01:57:28;43.65;;;31.35;;
30080;SDS011;16902;50.816;12.828;2022-08-21T02:02:30;65.72;;;38.58;;
30080;SDS011;16902;50.816;12.828;2022-08-21T02:07:52;94.28;;;51.33;;
30080;SDS011;16902;50.816;12.828;2022-08-21T02:12:55;108.05;;;55.92;;
30080;SDS011;16902;50.816;12.828;2022-08-21T02:17:59;99.53;;;51.35;;
30080;SDS011;16902;50.816;12.828;2022-08-21T02:23:03;90.20;;;49.58;;
30080;SDS011;16902;50.816;12.828;2022-08-21T02:28:08;108.88;;;53.72;;
30080;SDS011;16902;50.816;12.828;2022-08-21T02:33:11;92.13;;;51.42;;
30080;SDS011;16902;50.816;12.828;2022-08-21T02:38:15;95.75;;;48.80;;
30080;SDS011;16902;50.816;12.828;2022-08-21T02:43:20;92.80;;;47.45;;
30080;SDS011;16902;50.816;12.828;2022-08-21T02:48:25;102.50;;;51.70;;
30080;SDS011;16902;50.816;12.828;2022-08-21T02:53:29;80.22;;;43.15;;
30080;SDS011;16902;50.816;12.828;2022-08-21T02:58:34;73.07;;;40.75;;
30080;SDS011;16902;50.816;12.828;2022-08-21T03:03:41;75.97;;;42.50;;
30080;SDS011;16902;50.816;12.828;2022-08-21T03:08:45;70.32;;;38.90;;
30080;SDS011;16902;50.816;12.828;2022-08-21T03:13:47;65.75;;;36.60;;
30080;SDS011;16902;50.816;12.828;2022-08-21T03:18:48;74.53;;;41.10;;
30080;SDS011;16902;50.816;12.828;2022-08-21T03:23:50;61.80;;;35.63;;
30080;SDS011;16902;50.816;12.828;2022-08-21T03:28:52;66.43;;;38.35;;
30080;SDS011;16902;50.816;12.828;2022-08-21T03:33:54;69.63;;;40.75;;
30080;SDS011;16902;50.816;12.828;2022-08-21T03:38:56;66.90;;;37.15;;
30080;SDS011;16902;50.816;12.828;2022-08-21T03:43:58;62.08;;;35.03;;
30080;SDS011;16902;50.816;12.828;2022-08-21T03:49:00;56.63;;;33.33;;
30080;SDS011;16902;50.816;12.828;2022-08-21T03:54:02;52.20;;;31.70;;
30080;SDS011;16902;50.816;12.828;2022-08-21T03:59:04;51.38;;;30.60;;
30080;SDS011;16902;50.816;12.828;2022-08-21T04:04:06;47.45;;;28.95;;
30080;SDS011;16902;50.816;12.828;2022-08-21T04:09:08;46.97;;;29.85;;
30080;SDS011;16902;50.816;12.828;2022-08-21T04:14:09;39.65;;;26.65;;
30080;SDS011;16902;50.816;12.828;2022-08-21T04:19:11;40.50;;;26.95;;
30080;SDS011;16902;50.816;12.828;2022-08-21T04:24:17;40.83;;;28.40;;
30080;SDS011;16902;50.816;12.828;2022-08-21T04:29:18;41.03;;;27.77;;
30080;SDS011;16902;50.816;12.828;2022-08-21T04:34:21;42.70;;;28.55;;
30080;SDS011;16902;50.816;12.828;2022-08-21T04:39:22;41.42;;;27.45;;
30080;SDS011;16902;50.816;12.828;2022-08-21T04:44:30;38.63;;;26.73;;
30080;SDS011;16902;50.816;12.828;2022-08-21T04:49:32;36.20;;;26.15;;
30080;SDS011;16902;50.816;12.828;2022-08-21T04:54:34;33.90;;;25.23;;
30080;SDS011;16902;50.816;12.828;2022-08-21T04:59:38;38.35;;;26.35;;
30080;SDS011;16902;50.816;12.828;2022-08-21T05:04:50;39.80;;;27.90;;
30080;SDS011;16902;50.816;12.828;2022-08-21T05:09:54;31.35;;;22.50;;
30080;SDS011;16902;50.816;12.828;2022-08-21T05:14:56;31.40;;;23.42;;
30080;SDS011;16902;50.816;12.828;2022-08-21T05:19:58;42.78;;;32.03;;
30080;SDS011;16902;50.816;12.828;2022-08-21T05:24:59;40.83;;;28.05;;
30080;SDS011;16902;50.816;12.828;2022-08-21T05:30:01;39.03;;;29.38;;
30080;SDS011;16902;50.816;12.828;2022-08-21T05:35:04;35.70;;;27.95;;
30080;SDS011;16902;50.816;12.828;2022-08-21T05:40:08;37.17;;;28.48;;
30080;SDS011;16902;50.816;12.828;2022-08-21T05:45:24;30.10;;;23.48;;
30080;SDS011;16902;50.816;12.828;2022-08-21T05:50:45;35.20;;;27.20;;
30080;SDS011;16902;50.816;12.828;2022-08-21T05:55:48;33.90;;;26.23;;
30080;SDS011;16902;50.816;12.828;2022-08-21T06:00:50;29.08;;;23.90;;
30080;SDS011;16902;50.816;12.828;2022-08-21T06:05:54;28.30;;;21.17;;
30080;SDS011;16902;50.816;12.828;2022-08-21T06:10:58;34.88;;;24.55;;
30080;SDS011;16902;50.816;12.828;2022-08-21T06:16:08;24.70;;;19.50;;
30080;SDS011;16902;50.816;12.828;2022-08-21T06:21:16;24.83;;;20.55;;
30080;SDS011;16902;50.816;12.828;2022-08-21T06:26:18;26.60;;;20.67;;
30080;SDS011;16902;50.816;12.828;2022-08-21T06:31:22;21.63;;;18.45;;
30080;SDS011;16902;50.816;12.828;2022-08-21T06:36:25;23.85;;;20.20;;
30080;SDS011;16902;50.816;12.828;2022-08-21T06:41:27;24.52;;;21.50;;
30080;SDS011;16902;50.816;12.828;2022-08-21T06:46:29;25.42;;;20.50;;
30080;SDS011;16902;50.816;12.828;2022-08-21T06:51:31;21.52;;;18.50;;
30080;SDS011;16902;50.816;12.828;2022-08-21T06:56:33;17.98;;;15.80;;
30080;SDS011;16902;50.816;12.828;2022-08-21T07:01:36;21.02;;;18.67;;
30080;SDS011;16902;50.816;12.828;2022-08-21T07:06:38;22.75;;;17.48;;
30080;SDS011;16902;50.816;12.828;2022-08-21T07:11:39;25.42;;;21.63;;
30080;SDS011;16902;50.816;12.828;2022-08-21T07:16:48;28.92;;;23.63;;
30080;SDS011;16902;50.816;12.828;2022-08-21T07:21:50;23.30;;;20.35;;
30080;SDS011;16902;50.816;12.828;2022-08-21T07:26:59;25.48;;;20.42;;
30080;SDS011;16902;50.816;12.828;2022-08-21T07:32:01;22.05;;;18.98;;
30080;SDS011;16902;50.816;12.828;2022-08-21T07:37:03;23.85;;;19.20;;
30080;SDS011;16902;50.816;12.828;2022-08-21T07:42:10;22.02;;;18.92;;
30080;SDS011;16902;50.816;12.828;2022-08-21T07:47:12;18.30;;;16.40;;
30080;SDS011;16902;50.816;12.828;2022-08-21T07:52:13;16.70;;;15.02;;
30080;SDS011;16902;50.816;12.828;2022-08-21T07:57:15;16.98;;;14.32;;
30080;SDS011;16902;50.816;12.828;2022-08-21T08:02:22;15.18;;;13.32;;
30080;SDS011;16902;50.816;12.828;2022-08-21T08:07:28;17.58;;;15.02;;
30080;SDS011;16902;50.816;12.828;2022-08-21T08:12:30;12.88;;;11.48;;
30080;SDS011;16902;50.816;12.828;2022-08-21T08:17:32;18.02;;;16.17;;
30080;SDS011;16902;50.816;12.828;2022-08-21T08:22:34;12.68;;;11.40;;
30080;SDS011;16902;50.816;12.828;2022-08-21T08:27:37;12.95;;;11.65;;
30080;SDS011;16902;50.816;12.828;2022-08-21T08:32:40;12.95;;;11.57;;
30080;SDS011;16902;50.816;12.828;2022-08-21T08:37:42;13.02;;;11.73;;
30080;SDS011;16902;50.816;12.828;2022-08-21T08:42:52;14.75;;;12.77;;
30080;SDS011;16902;50.816;12.828;2022-08-21T08:48:00;10.43;;;9.35;;
30080;SDS011;16902;50.816;12.828;2022-08-21T08:53:05;8.93;;;7.70;;
30080;SDS011;16902;50.816;12.828;2022-08-21T08:58:16;10.00;;;8.00;;
30080;SDS011;16902;50.816;12.828;2022-08-21T09:03:25;11.50;;;8.68;;
30080;SDS011;16902;50.816;12.828;2022-08-21T09:29:52;10.40;;;7.40;;
30080;SDS011;16902;50.816;12.828;2022-08-21T09:34:56;8.63;;;7.40;;
30080;SDS011;16902;50.816;12.828;2022-08-21T09:40:15;6.75;;;5.55;;
30080;SDS011;16902;50.816;12.828;2022-08-21T09:45:22;7.68;;;6.47;;
30080;SDS011;16902;50.816;12.828;2022-08-21T09:50:26;9.98;;;6.78;;
30080;SDS011;16902;50.816;12.828;2022-08-21T10:00:57;7.30;;;5.00;;
30080;SDS011;16902;50.816;12.828;2022-08-21T10:11:11;5.82;;;3.80;;
30080;SDS011;16902;50.816;12.828;2022-08-21T10:21:59;6.18;;;3.40;;
30080;SDS011;16902;50.816;12.828;2022-08-21T10:27:16;7.07;;;3.75;;
30080;SDS011;16902;50.816;12.828;2022-08-21T10:38:53;3.90;;;2.88;;
30080;SDS011;16902;50.816;12.828;2022-08-21T10:55:33;4.30;;;3.05;;
30080;SDS011;16902;50.816;12.828;2022-08-21T11:01:00;5.53;;;2.97;;
30080;SDS011;16902;50.816;12.828;2022-08-21T11:06:31;5.07;;;2.85;;
30080;SDS011;16902;50.816;12.828;2022-08-21T11:11:38;4.80;;;2.95;;
30080;SDS011;16902;50.816;12.828;2022-08-21T11:17:10;4.82;;;2.53;;
30080;SDS011;16902;50.816;12.828;2022-08-21T11:22:19;3.33;;;2.42;;
30080;SDS011;16902;50.816;12.828;2022-08-21T11:38:06;3.33;;;2.88;;
30080;SDS011;16902;50.816;12.828;2022-08-21T11:43:43;5.00;;;2.70;;
30080;SDS011;16902;50.816;12.828;2022-08-21T11:59:39;4.18;;;2.83;;
30080;SDS011;16902;50.816;12.828;2022-08-21T12:04:53;3.45;;;2.53;;
30080;SDS011;16902;50.816;12.828;2022-08-21T12:09:59;4.47;;;3.40;;
30080;SDS011;16902;50.816;12.828;2022-08-21T12:20:26;4.38;;;3.00;;
30080;SDS011;16902;50.816;12.828;2022-08-21T12:25:36;3.60;;;2.47;;
30080;SDS011;16902;50.816;12.828;2022-08-21T12:30:43;2.85;;;2.50;;
30080;SDS011;16902;50.816;12.828;2022-08-21T12:35:46;3.35;;;2.72;;
30080;SDS011;16902;50.816;12.828;2022-08-21T12:40:52;3.17;;;2.35;;
30080;SDS011;16902;50.816;12.828;2022-08-21T12:45:58;5.30;;;2.67;;
30080;SDS011;16902;50.816;12.828;2022-08-21T12:56:19;5.93;;;2.50;;
30080;SDS011;16902;50.816;12.828;2022-08-21T13:06:42;3.80;;;2.13;;
30080;SDS011;16902;50.816;12.828;2022-08-21T13:11:47;3.72;;;2.30;;
30080;SDS011;16902;50.816;12.828;2022-08-21T13:16:56;2.33;;;2.13;;
30080;SDS011;16902;50.816;12.828;2022-08-21T13:22:00;3.50;;;2.28;;
30080;SDS011;16902;50.816;12.828;2022-08-21T13:27:24;2.95;;;2.60;;
30080;SDS011;16902;50.816;12.828;2022-08-21T13:32:27;3.65;;;2.20;;
30080;SDS011;16902;50.816;12.828;2022-08-21T13:37:31;3.47;;;2.35;;
30080;SDS011;16902;50.816;12.828;2022-08-21T13:42:33;3.72;;;2.17;;
30080;SDS011;16902;50.816;12.828;2022-08-21T13:47:35;3.72;;;2.17;;
30080;SDS011;16902;50.816;12.828;2022-08-21T13:52:44;4.03;;;2.70;;
30080;SDS011;16902;50.816;12.828;2022-08-21T13:57:58;3.45;;;2.50;;
30080;SDS011;16902;50.816;12.828;2022-08-21T14:03:04;3.47;;;2.65;;
30080;SDS011;16902;50.816;12.828;2022-08-21T14:08:14;4.30;;;2.40;;
30080;SDS011;16902;50.816;12.828;2022-08-21T14:18:50;3.53;;;2.05;;
30080;SDS011;16902;50.816;12.828;2022-08-21T14:24:13;4.30;;;2.30;;
30080;SDS011;16902;50.816;12.828;2022-08-21T14:29:38;2.55;;;2.15;;
30080;SDS011;16902;50.816;12.828;2022-08-21T14:34:44;3.83;;;2.50;;
30080;SDS011;16902;50.816;12.828;2022-08-21T14:39:47;3.08;;;2.08;;
30080;SDS011;16902;50.816;12.828;2022-08-21T14:44:48;3.55;;;2.10;;
30080;SDS011;16902;50.816;12.828;2022-08-21T14:49:50;2.90;;;2.30;;
30080;SDS011;16902;50.816;12.828;2022-08-21T14:54:55;3.20;;;2.90;;
30080;SDS011;16902;50.816;12.828;2022-08-21T14:59:56;2.72;;;2.38;;
30080;SDS011;16902;50.816;12.828;2022-08-21T15:05:02;3.65;;;2.70;;
30080;SDS011;16902;50.816;12.828;2022-08-21T15:10:05;3.70;;;2.75;;
30080;SDS011;16902;50.816;12.828;2022-08-21T15:15:10;4.25;;;3.20;;
30080;SDS011;16902;50.816;12.828;2022-08-21T15:20:11;6.60;;;3.20;;
30080;SDS011;16902;50.816;12.828;2022-08-21T15:25:16;3.42;;;3.10;;
30080;SDS011;16902;50.816;12.828;2022-08-21T15:30:17;4.22;;;3.20;;
30080;SDS011;16902;50.816;12.828;2022-08-21T15:35:19;5.18;;;3.15;;
30080;SDS011;16902;50.816;12.828;2022-08-21T15:40:21;6.47;;;3.72;;
30080;SDS011;16902;50.816;12.828;2022-08-21T15:45:23;4.38;;;3.25;;
30080;SDS011;16902;50.816;12.828;2022-08-21T15:50:25;4.18;;;3.22;;
30080;SDS011;16902;50.816;12.828;2022-08-21T15:55:29;3.88;;;3.10;;
30080;SDS011;16902;50.816;12.828;2022-08-21T16:00:32;3.92;;;3.25;;
30080;SDS011;16902;50.816;12.828;2022-08-21T16:05:36;4.47;;;3.45;;
30080;SDS011;16902;50.816;12.828;2022-08-21T16:10:38;4.55;;;3.00;;
30080;SDS011;16902;50.816;12.828;2022-08-21T16:15:41;5.28;;;3.53;;
30080;SDS011;16902;50.816;12.828;2022-08-21T16:20:42;6.00;;;3.83;;
30080;SDS011;16902;50.816;12.828;2022-08-21T16:25:44;5.50;;;3.70;;
30080;SDS011;16902;50.816;12.828;2022-08-21T16:30:48;5.68;;;4.10;;
30080;SDS011;16902;50.816;12.828;2022-08-21T16:35:51;4.85;;;4.10;;
30080;SDS011;16902;50.816;12.828;2022-08-21T16:40:53;5.65;;;3.72;;
30080;SDS011;16902;50.816;12.828;2022-08-21T16:45:55;4.57;;;3.58;;
30080;SDS011;16902;50.816;12.828;2022-08-21T16:50:58;5.82;;;3.55;;
30080;SDS011;16902;50.816;12.828;2022-08-21T16:56:00;4.22;;;3.00;;
30080;SDS011;16902;50.816;12.828;2022-08-21T17:01:03;5.65;;;3.38;;
30080;SDS011;16902;50.816;12.828;2022-08-21T17:06:08;4.20;;;3.17;;
30080;SDS011;16902;50.816;12.828;2022-08-21T17:11:14;4.47;;;3.15;;
30080;SDS011;16902;50.816;12.828;2022-08-21T17:16:39;3.53;;;2.85;;
30080;SDS011;16902;50.816;12.828;2022-08-21T17:21:42;5.18;;;3.50;;
30080;SDS011;16902;50.816;12.828;2022-08-21T17:26:44;5.38;;;3.33;;
30080;SDS011;16902;50.816;12.828;2022-08-21T17:31:46;3.20;;;2.80;;
30080;SDS011;16902;50.816;12.828;2022-08-21T17:36:48;3.35;;;2.70;;
30080;SDS011;16902;50.816;12.828;2022-08-21T17:41:49;3.65;;;2.60;;
30080;SDS011;16902;50.816;12.828;2022-08-21T17:46:58;5.72;;;2.55;;
30080;SDS011;16902;50.816;12.828;2022-08-21T17:52:00;5.47;;;3.00;;
30080;SDS011;16902;50.816;12.828;2022-08-21T17:57:01;6.28;;;3.30;;
30080;SDS011;16902;50.816;12.828;2022-08-21T18:02:04;3.35;;;3.05;;
30080;SDS011;16902;50.816;12.828;2022-08-21T18:07:20;4.53;;;2.95;;
30080;SDS011;16902;50.816;12.828;2022-08-21T18:12:33;4.13;;;2.67;;
30080;SDS011;16902;50.816;12.828;2022-08-21T18:17:35;5.05;;;3.30;;
30080;SDS011;16902;50.816;12.828;2022-08-21T18:22:37;3.88;;;3.15;;
30080;SDS011;16902;50.816;12.828;2022-08-21T18:27:39;6.97;;;2.90;;
30080;SDS011;16902;50.816;12.828;2022-08-21T18:32:44;3.90;;;3.47;;
30080;SDS011;16902;50.816;12.828;2022-08-21T18:37:46;5.70;;;3.40;;
30080;SDS011;16902;50.816;12.828;2022-08-21T18:42:48;6.72;;;4.50;;
30080;SDS011;16902;50.816;12.828;2022-08-21T18:47:56;5.88;;;4.88;;
30080;SDS011;16902;50.816;12.828;2022-08-21T18:52:58;6.70;;;5.78;;
30080;SDS011;16902;50.816;12.828;2022-08-21T18:58:01;6.70;;;5.90;;
30080;SDS011;16902;50.816;12.828;2022-08-21T19:03:03;9.05;;;6.63;;
30080;SDS011;16902;50.816;12.828;2022-08-21T19:08:09;10.48;;;7.43;;
30080;SDS011;16902;50.816;12.828;2022-08-21T19:13:14;8.77;;;7.65;;
30080;SDS011;16902;50.816;12.828;2022-08-21T19:18:19;11.57;;;10.48;;
30080;SDS011;16902;50.816;12.828;2022-08-21T19:23:44;12.00;;;10.80;;
30080;SDS011;16902;50.816;12.828;2022-08-21T19:28:55;7.50;;;6.80;;
30080;SDS011;16902;50.816;12.828;2022-08-21T19:34:20;12.77;;;11.40;;
30080;SDS011;16902;50.816;12.828;2022-08-21T19:39:26;16.23;;;13.43;;
30080;SDS011;16902;50.816;12.828;2022-08-21T19:44:28;25.70;;;20.35;;
30080;SDS011;16902;50.816;12.828;2022-08-21T19:49:32;23.27;;;17.15;;
30080;SDS011;16902;50.816;12.828;2022-08-21T19:54:34;14.77;;;11.43;;
30080;SDS011;16902;50.816;12.828;2022-08-21T19:59:37;10.27;;;8.30;;
30080;SDS011;16902;50.816;12.828;2022-08-21T20:04:40;9.05;;;8.07;;
30080;SDS011;16902;50.816;12.828;2022-08-21T20:09:54;8.68;;;7.70;;
30080;SDS011;16902;50.816;12.828;2022-08-21T20:14:57;8.60;;;7.32;;
30080;SDS011;16902;50.816;12.828;2022-08-21T20:19:59;12.57;;;11.32;;
30080;SDS011;16902;50.816;12.828;2022-08-21T20:25:01;11.00;;;9.43;;
30080;SDS011;16902;50.816;12.828;2022-08-21T20:30:05;8.95;;;7.18;;
30080;SDS011;16902;50.816;12.828;2022-08-21T20:35:07;7.47;;;6.18;;
30080;SDS011;16902;50.816;12.828;2022-08-21T20:40:14;7.50;;;6.32;;
30080;SDS011;16902;50.816;12.828;2022-08-21T20:45:23;13.07;;;10.65;;
30080;SDS011;16902;50.816;12.828;2022-08-21T20:50:27;12.25;;;10.00;;
30080;SDS011;16902;50.816;12.828;2022-08-21T20:55:32;9.23;;;7.70;;
30080;SDS011;16902;50.816;12.828;2022-08-21T21:00:39;8.95;;;7.65;;
30080;SDS011;16902;50.816;12.828;2022-08-21T21:05:44;13.98;;;8.43;;
30080;SDS011;16902;50.816;12.828;2022-08-21T21:16:11;13.75;;;11.23;;
30080;SDS011;16902;50.816;12.828;2022-08-21T21:21:20;12.75;;;10.40;;
30080;SDS011;16902;50.816;12.828;2022-08-21T21:31:51;13.43;;;9.05;;
30080;SDS011;16902;50.816;12.828;2022-08-21T21:42:16;9.65;;;7.55;;
30080;SDS011;16902;50.816;12.828;2022-08-21T21:48:02;9.15;;;7.32;;
30080;SDS011;16902;50.816;12.828;2022-08-21T21:58:55;9.48;;;8.57;;
30080;SDS011;16902;50.816;12.828;2022-08-21T22:14:40;12.80;;;11.50;;
30080;SDS011;16902;50.816;12.828;2022-08-21T22:19:42;12.50;;;10.20;;
30080;SDS011;16902;50.816;12.828;2022-08-21T22:24:49;8.73;;;7.95;;
30080;SDS011;16902;50.816;12.828;2022-08-21T22:29:58;8.93;;;7.63;;
30080;SDS011;16902;50.816;12.828;2022-08-21T22:45:27;11.57;;;9.98;;
30080;SDS011;16902;50.816;12.828;2022-08-21T22:50:30;11.68;;;10.40;;
30080;SDS011;16902;50.816;12.828;2022-08-21T22:55:38;9.88;;;8.93;;
30080;SDS011;16902;50.816;12.828;2022-08-21T23:05:58;8.50;;;7.65;;
30080;SDS011;16902;50.816;12.828;2022-08-21T23:11:14;7.80;;;7.10;;
30080;SDS011;16902;50.816;12.828;2022-08-21T23:21:56;7.15;;;6.45;;
30080;SDS011;16902;50.816;12.828;2022-08-21T23:38:33;25.75;;;23.05;;
30080;SDS011;16902;50.816;12.828;2022-08-21T23:54:42;8.65;;;7.50;;
